createdAt,value
2018-10-09T00:00:00.922Z,65.85
2018-10-09T00:02:29.479Z,66.22
2018-10-09T00:04:58.003Z,65.82
2018-10-09T00:07:26.575Z,65.73
2018-10-09T00:09:55.109Z,65.90
2018-10-09T00:12:23.707Z,65.42
2018-10-09T00:14:52.184Z,65.20
2018-10-09T00:17:21.357Z,65.87
2018-10-09T00:19:49.915Z,66.09
2018-10-09T00:22:18.428Z,66.52
2018-10-09T00:24:46.927Z,67.00
2018-10-09T00:27:15.459Z,66.28
2018-10-09T00:29:43.941Z,66.02
2018-10-09T00:32:12.388Z,67.55
2018-10-09T00:34:40.913Z,67.77
2018-10-09T00:37:09.340Z,66.43
2018-10-09T00:39:37.871Z,65.87
2018-10-09T00:42:06.311Z,67.58
2018-10-09T00:44:34.793Z,66.24
2018-10-09T00:47:03.279Z,66.70
2018-10-09T00:49:31.780Z,66.37
2018-10-09T00:52:00.258Z,66.79
2018-10-09T00:54:28.776Z,68.18
2018-10-09T00:56:57.281Z,67.82
2018-10-09T00:59:25.930Z,67.99
2018-10-09T01:01:54.464Z,68.59
2018-10-09T01:04:22.944Z,67.67
2018-10-09T01:06:51.572Z,66.84
2018-10-09T01:09:20.166Z,67.18
2018-10-09T01:11:48.630Z,67.29
2018-10-09T01:14:17.207Z,67.45
2018-10-09T01:16:45.771Z,66.74
2018-10-09T01:19:14.441Z,66.36
2018-10-09T01:21:43.049Z,67.03
2018-10-09T01:24:11.592Z,67.86
2018-10-09T01:26:40.179Z,66.58
2018-10-09T01:29:08.674Z,66.57
2018-10-09T01:31:37.206Z,66.21
2018-10-09T01:34:05.734Z,66.85
2018-10-09T01:36:34.307Z,66.84
2018-10-09T01:39:02.797Z,67.89
2018-10-09T01:41:31.315Z,67.39
2018-10-09T01:43:59.892Z,67.36
2018-10-09T01:46:28.428Z,66.74
2018-10-09T01:48:56.984Z,67.70
2018-10-09T01:51:25.563Z,67.72
2018-10-09T01:53:54.060Z,67.24
2018-10-09T01:56:22.547Z,67.84
2018-10-09T01:58:50.998Z,67.05
2018-10-09T02:01:19.453Z,68.21
2018-10-09T02:03:47.962Z,67.61
2018-10-09T02:06:16.437Z,68.23
2018-10-09T02:08:44.955Z,67.37
2018-10-09T02:11:13.572Z,67.22
2018-10-09T02:13:42.124Z,68.83
2018-10-09T02:16:10.704Z,68.34
2018-10-09T02:18:39.265Z,67.25
2018-10-09T02:21:07.865Z,66.96
2018-10-09T02:23:36.417Z,67.03
2018-10-09T02:26:04.940Z,67.36
2018-10-09T02:28:33.458Z,67.73
2018-10-09T02:31:02.079Z,68.21
2018-10-09T02:33:30.687Z,66.83
2018-10-09T02:35:59.147Z,67.80
2018-10-09T02:38:27.639Z,67.37
2018-10-09T02:40:56.198Z,66.87
2018-10-09T02:43:24.719Z,68.42
2018-10-09T02:45:53.255Z,67.57
2018-10-09T02:48:21.698Z,67.52
2018-10-09T02:50:50.504Z,67.73
2018-10-09T02:53:18.993Z,66.81
2018-10-09T02:55:47.555Z,67.35
2018-10-09T02:58:16.035Z,67.78
2018-10-09T03:00:44.644Z,67.40
2018-10-09T03:03:13.158Z,67.56
2018-10-09T03:05:41.969Z,68.28
2018-10-09T03:08:10.438Z,67.98
2018-10-09T03:10:39.065Z,67.88
2018-10-09T03:13:07.536Z,68.64
2018-10-09T03:15:35.993Z,68.18
2018-10-09T03:18:04.460Z,69.26
2018-10-09T03:20:33.127Z,67.36
2018-10-09T03:23:01.610Z,67.43
2018-10-09T03:25:30.177Z,66.78
2018-10-09T03:27:58.710Z,67.41
2018-10-09T03:30:27.180Z,67.03
2018-10-09T03:32:55.652Z,67.48
2018-10-09T03:35:24.081Z,66.79
2018-10-09T03:37:52.589Z,67.93
2018-10-09T03:40:21.035Z,67.44
2018-10-09T03:42:49.538Z,67.70
2018-10-09T03:45:18.005Z,67.18
2018-10-09T03:47:46.458Z,68.79
2018-10-09T03:50:14.961Z,67.01
2018-10-09T03:52:43.620Z,68.09
2018-10-09T03:55:12.109Z,69.32
2018-10-09T03:57:40.638Z,68.22
2018-10-09T04:00:09.331Z,68.24
2018-10-09T04:02:37.903Z,66.75
2018-10-09T04:05:06.412Z,67.57
2018-10-09T04:07:34.954Z,67.40
2018-10-09T04:10:03.328Z,68.09
2018-10-09T04:12:31.659Z,68.51
2018-10-09T04:14:59.947Z,67.46
2018-10-09T04:17:28.274Z,69.18
2018-10-09T04:19:56.565Z,68.75
2018-10-09T04:22:24.876Z,68.43
2018-10-09T04:24:53.193Z,68.28
2018-10-09T04:27:21.568Z,68.27
2018-10-09T04:29:49.952Z,67.64
2018-10-09T04:32:20.164Z,69.56
2018-10-09T04:34:49.706Z,69.24
2018-10-09T04:37:18.937Z,67.84
2018-10-09T04:39:48.496Z,67.38
2018-10-09T04:42:17.311Z,67.55
2018-10-09T04:44:46.423Z,68.67
2018-10-09T04:47:15.928Z,69.15
2018-10-09T04:49:45.082Z,68.74
2018-10-09T04:52:14.077Z,68.29
2018-10-09T04:54:43.439Z,67.26
2018-10-09T04:57:12.403Z,69.04
2018-10-09T04:59:41.750Z,67.93
2018-10-09T05:02:10.505Z,68.29
2018-10-09T05:04:38.843Z,68.43
2018-10-09T05:07:08.201Z,68.41
2018-10-09T05:09:36.537Z,67.71
2018-10-09T05:12:05.632Z,67.73
2018-10-09T05:14:34.807Z,67.84
2018-10-09T05:17:04.256Z,67.70
2018-10-09T05:19:33.524Z,67.66
2018-10-09T05:22:01.973Z,68.03
2018-10-09T05:24:31.345Z,68.72
2018-10-09T05:27:00.794Z,68.84
2018-10-09T05:29:29.163Z,68.32
2018-10-09T05:31:57.510Z,68.82
2018-10-09T05:34:26.075Z,69.67
2018-10-09T05:36:54.374Z,68.09
2018-10-09T05:39:22.663Z,67.89
2018-10-09T05:41:51.012Z,67.86
2018-10-09T05:44:19.380Z,68.29
2018-10-09T05:46:47.620Z,67.46
2018-10-09T05:49:15.919Z,68.49
2018-10-09T05:51:44.228Z,68.17
2018-10-09T05:54:12.536Z,67.68
2018-10-09T05:56:40.865Z,68.21
2018-10-09T05:59:09.181Z,68.51
2018-10-09T06:01:37.645Z,68.58
2018-10-09T06:04:06.020Z,68.31
2018-10-09T06:06:34.450Z,68.69
2018-10-09T06:09:02.863Z,68.35
2018-10-09T06:11:31.315Z,69.14
2018-10-09T06:13:59.752Z,68.63
2018-10-09T06:16:28.340Z,68.43
2018-10-09T06:18:56.788Z,67.36
2018-10-09T06:21:25.184Z,68.09
2018-10-09T06:23:53.599Z,69.01
2018-10-09T06:26:22.056Z,67.65
2018-10-09T06:28:50.517Z,67.05
2018-10-09T06:31:19.022Z,66.41
2018-10-09T06:33:47.605Z,67.15
2018-10-09T06:36:16.369Z,66.54
2018-10-09T06:38:44.880Z,65.97
2018-10-09T06:41:13.387Z,66.03
2018-10-09T06:43:41.960Z,65.32
2018-10-09T06:46:10.468Z,65.30
2018-10-09T06:48:38.992Z,65.54
2018-10-09T06:51:07.462Z,64.99
2018-10-09T06:53:35.821Z,64.46
2018-10-09T06:56:04.283Z,63.77
2018-10-09T06:58:32.624Z,63.87
2018-10-09T07:01:01.080Z,64.53
2018-10-09T07:03:29.417Z,64.34
2018-10-09T07:05:57.931Z,63.86
2018-10-09T07:08:26.412Z,63.46
2018-10-09T07:10:54.960Z,63.35
2018-10-09T07:13:23.392Z,62.86
2018-10-09T07:15:51.893Z,63.31
2018-10-09T07:18:20.275Z,63.17
2018-10-09T07:20:48.680Z,62.79
2018-10-09T07:23:17.212Z,62.40
2018-10-09T07:25:45.748Z,62.93
2018-10-09T07:28:14.245Z,62.47
2018-10-09T07:30:42.789Z,62.38
2018-10-09T07:33:11.260Z,62.00
2018-10-09T07:35:39.737Z,61.24
2018-10-09T07:38:08.285Z,63.36
2018-10-09T07:40:36.815Z,62.61
2018-10-09T07:43:05.296Z,61.24
2018-10-09T07:45:33.724Z,60.74
2018-10-09T07:48:02.271Z,60.61
2018-10-09T07:50:30.716Z,59.60
2018-10-09T07:52:59.282Z,59.67
2018-10-09T07:55:27.604Z,59.54
2018-10-09T07:57:56.123Z,57.50
2018-10-09T08:00:24.746Z,58.11
2018-10-09T08:02:53.249Z,57.96
2018-10-09T08:05:21.700Z,59.70
2018-10-09T08:07:50.211Z,60.53
2018-10-09T08:10:18.759Z,60.26
2018-10-09T08:12:47.160Z,58.99
2018-10-09T08:15:15.600Z,61.13
2018-10-09T08:17:44.032Z,60.18
2018-10-09T08:20:12.435Z,58.80
2018-10-09T08:22:40.897Z,58.84
2018-10-09T08:25:09.306Z,56.18
2018-10-09T08:27:37.805Z,53.32
2018-10-09T08:30:06.332Z,45.27
2018-10-09T08:32:34.784Z,44.31
2018-10-09T08:35:03.200Z,41.47
2018-10-09T08:37:31.601Z,41.11
2018-10-09T08:40:00.018Z,39.69
2018-10-09T08:42:28.521Z,42.06
2018-10-09T08:44:57.036Z,44.23
2018-10-09T08:47:25.468Z,43.11
2018-10-09T08:49:53.987Z,40.68
2018-10-09T08:52:22.539Z,41.55
2018-10-09T08:54:50.944Z,40.25
2018-10-09T08:57:19.471Z,40.29
2018-10-09T08:59:47.921Z,38.92
2018-10-09T09:02:16.367Z,37.23
2018-10-09T09:04:44.911Z,35.93
2018-10-09T09:07:13.306Z,37.65
2018-10-09T09:09:41.798Z,39.57
2018-10-09T09:12:10.136Z,42.39
2018-10-09T09:14:38.656Z,43.85
2018-10-09T09:17:07.064Z,44.08
2018-10-09T09:19:35.553Z,46.56
2018-10-09T09:22:04.007Z,48.58
2018-10-09T09:24:32.439Z,48.43
2018-10-09T09:27:01.123Z,46.01
2018-10-09T09:29:29.571Z,43.44
2018-10-09T09:31:58.120Z,40.94
2018-10-09T09:34:26.585Z,39.14
2018-10-09T09:36:55.080Z,39.26
2018-10-09T09:39:23.458Z,39.81
2018-10-09T09:41:51.908Z,42.69
2018-10-09T09:44:20.305Z,45.44
2018-10-09T09:46:48.756Z,46.04
2018-10-09T09:49:17.164Z,46.82
2018-10-09T09:51:45.642Z,46.43
2018-10-09T09:54:14.056Z,46.52
2018-10-09T09:56:42.460Z,44.90
2018-10-09T09:59:11.033Z,42.95
2018-10-09T10:01:43.387Z,44.05
2018-10-09T10:04:12.668Z,45.09
2018-10-09T10:06:41.300Z,42.54
2018-10-09T10:09:10.393Z,40.44
2018-10-09T10:11:39.083Z,41.13
2018-10-09T10:14:08.064Z,40.26
2018-10-09T10:16:36.539Z,38.94
2018-10-09T10:19:05.119Z,38.31
2018-10-09T10:21:33.683Z,36.29
2018-10-09T10:24:02.038Z,35.53
2018-10-09T10:26:30.497Z,35.97
2018-10-09T10:28:59.003Z,38.42
2018-10-09T10:31:27.450Z,40.11
2018-10-09T10:33:56.070Z,42.07
2018-10-09T10:36:24.584Z,42.07
2018-10-09T10:38:53.115Z,42.64
2018-10-09T10:41:21.712Z,42.21
2018-10-09T10:43:50.244Z,42.44
2018-10-09T10:46:18.868Z,42.06
2018-10-09T10:48:59.587Z,42.84
2018-10-09T10:51:27.963Z,42.25
2018-10-09T10:53:56.729Z,44.11
2018-10-09T10:56:25.106Z,42.70
2018-10-09T10:58:53.465Z,43.85
2018-10-09T11:01:21.861Z,43.63
2018-10-09T11:03:50.225Z,42.48
2018-10-09T11:06:18.662Z,44.00
2018-10-09T11:08:47.884Z,42.57
2018-10-09T11:11:16.629Z,41.03
2018-10-09T11:13:45.261Z,40.56
2018-10-09T11:16:13.753Z,41.40
2018-10-09T11:18:42.296Z,41.45
2018-10-09T11:21:10.744Z,42.20
2018-10-09T11:23:39.476Z,41.39
2018-10-09T11:26:08.104Z,40.34
2018-10-09T11:28:36.556Z,39.48
2018-10-09T11:31:05.000Z,37.91
2018-10-09T11:33:33.705Z,35.96
2018-10-09T11:36:02.140Z,33.97
2018-10-09T11:38:30.485Z,33.06
2018-10-09T11:40:58.909Z,32.36
2018-10-09T11:43:27.296Z,31.94
2018-10-09T11:45:55.685Z,33.92
2018-10-09T11:48:24.100Z,35.15
2018-10-09T11:50:52.489Z,35.68
2018-10-09T11:53:20.860Z,34.08
2018-10-09T11:55:49.251Z,34.49
2018-10-09T11:58:17.628Z,32.68
2018-10-09T12:00:47.372Z,30.95
2018-10-09T12:03:15.787Z,31.09
2018-10-09T12:05:44.222Z,29.98
2018-10-09T12:08:12.798Z,30.08
2018-10-09T12:10:41.207Z,28.39
2018-10-09T12:13:09.600Z,28.79
2018-10-09T12:15:38.155Z,27.93
2018-10-09T12:18:06.569Z,28.44
2018-10-09T12:20:35.008Z,29.31
2018-10-09T12:23:03.412Z,29.38
2018-10-09T12:25:31.846Z,29.79
2018-10-09T12:28:00.254Z,30.38
2018-10-09T12:30:28.649Z,31.33
2018-10-09T12:32:57.290Z,33.92
2018-10-09T12:35:25.657Z,33.04
2018-10-09T12:37:54.282Z,33.79
2018-10-09T12:40:22.744Z,34.82
2018-10-09T12:42:51.206Z,35.10
2018-10-09T12:45:19.900Z,36.61
2018-10-09T12:47:48.400Z,36.53
2018-10-09T12:50:17.028Z,38.86
2018-10-09T12:52:45.525Z,40.29
2018-10-09T12:55:14.070Z,39.60
2018-10-09T12:57:42.546Z,40.55
2018-10-09T13:00:11.151Z,39.69
2018-10-09T13:02:40.551Z,40.47
2018-10-09T13:05:09.012Z,39.71
2018-10-09T13:07:37.528Z,39.40
2018-10-09T13:10:06.000Z,38.14
2018-10-09T13:12:34.427Z,38.91
2018-10-09T13:15:02.888Z,39.77
2018-10-09T13:17:31.338Z,39.57
2018-10-09T13:19:59.765Z,41.03
2018-10-09T13:22:28.474Z,39.29
2018-10-09T13:24:56.645Z,40.76
2018-10-09T13:27:25.072Z,39.78
2018-10-09T13:29:53.495Z,40.14
2018-10-09T13:32:21.940Z,40.07
2018-10-09T13:34:50.405Z,39.04
2018-10-09T13:37:18.970Z,38.75
2018-10-09T13:39:47.496Z,40.59
2018-10-09T13:42:15.908Z,38.77
2018-10-09T13:44:44.378Z,39.94
2018-10-09T13:47:12.810Z,39.69
2018-10-09T13:49:41.247Z,39.75
2018-10-09T13:52:09.740Z,39.31
2018-10-09T13:54:38.229Z,40.56
2018-10-09T13:57:07.017Z,40.23
2018-10-09T13:59:35.494Z,40.22
2018-10-09T14:02:03.999Z,39.36
2018-10-09T14:04:32.569Z,41.01
2018-10-09T14:07:01.075Z,41.22
2018-10-09T14:09:29.546Z,41.49
2018-10-09T14:11:58.096Z,41.96
2018-10-09T14:14:26.842Z,41.72
2018-10-09T14:16:57.676Z,42.20
2018-10-09T14:19:26.089Z,39.84
2018-10-09T14:21:54.783Z,41.75
2018-10-09T14:24:23.200Z,41.19
2018-10-09T14:26:51.590Z,41.63
2018-10-09T14:29:20.007Z,40.22
2018-10-09T14:31:48.420Z,41.12
2018-10-09T14:34:16.751Z,39.88
2018-10-09T14:36:45.221Z,38.90
2018-10-09T14:39:13.623Z,40.87
2018-10-09T14:41:42.200Z,41.22
2018-10-09T14:44:10.871Z,41.42
2018-10-09T14:46:39.184Z,42.10
2018-10-09T14:49:07.625Z,42.66
2018-10-09T14:51:36.154Z,41.83
2018-10-09T14:54:04.638Z,41.12
2018-10-09T14:56:33.104Z,41.87
2018-10-09T14:59:01.556Z,41.03
2018-10-09T15:01:30.069Z,39.54
2018-10-09T15:03:58.514Z,41.21
2018-10-09T15:06:26.919Z,42.33
2018-10-09T15:08:55.289Z,43.97
2018-10-09T15:11:23.700Z,43.96
2018-10-09T15:13:52.098Z,44.97
2018-10-09T15:16:20.504Z,46.26
2018-10-09T15:18:48.899Z,46.39
2018-10-09T15:21:17.301Z,46.10
2018-10-09T15:23:45.705Z,46.32
2018-10-09T15:26:14.104Z,47.40
2018-10-09T15:28:42.549Z,48.13
2018-10-09T15:31:10.992Z,49.00
2018-10-09T15:33:39.527Z,49.85
2018-10-09T15:36:08.001Z,47.98
2018-10-09T15:38:36.692Z,47.14
2018-10-09T15:41:05.183Z,47.60
2018-10-09T15:43:33.601Z,49.14
2018-10-09T15:46:02.038Z,50.15
2018-10-09T15:48:30.544Z,50.69
2018-10-09T15:50:59.008Z,50.29
2018-10-09T15:53:27.633Z,49.93
2018-10-09T15:55:56.192Z,49.99
2018-10-09T15:58:24.756Z,50.61
2018-10-09T16:00:53.252Z,50.12
2018-10-09T16:03:21.759Z,50.05
2018-10-09T16:05:50.348Z,49.67
2018-10-09T16:08:18.828Z,50.31
2018-10-09T16:10:47.317Z,50.58
2018-10-09T16:13:15.817Z,51.84
2018-10-09T16:15:44.328Z,51.71
2018-10-09T16:18:12.817Z,53.19
2018-10-09T16:20:41.394Z,53.89
2018-10-09T16:23:09.866Z,55.27
2018-10-09T16:25:38.404Z,55.53
2018-10-09T16:28:08.168Z,57.02
2018-10-09T16:30:36.664Z,56.36
2018-10-09T16:33:05.238Z,56.03
2018-10-09T16:35:33.734Z,56.21
2018-10-09T16:38:02.166Z,56.69
2018-10-09T16:40:30.665Z,56.48
2018-10-09T16:42:59.069Z,57.13
2018-10-09T16:45:27.547Z,57.81
2018-10-09T16:47:56.037Z,57.29
2018-10-09T16:50:24.479Z,59.30
2018-10-09T16:52:52.922Z,58.55
2018-10-09T16:55:21.459Z,58.74
2018-10-09T16:57:49.896Z,60.18
2018-10-09T17:00:18.500Z,58.78
2018-10-09T17:02:47.072Z,59.02
2018-10-09T17:05:15.679Z,59.53
2018-10-09T17:07:44.156Z,61.29
2018-10-09T17:10:12.628Z,59.24
2018-10-09T17:12:41.128Z,60.01
2018-10-09T17:15:09.624Z,62.39
2018-10-09T17:17:38.156Z,62.57
2018-10-09T17:20:06.664Z,61.41
2018-10-09T17:22:35.161Z,61.39
2018-10-09T17:25:03.616Z,61.69
2018-10-09T17:27:32.096Z,62.72
2018-10-09T17:30:00.593Z,62.25
2018-10-09T17:32:29.156Z,62.52
2018-10-09T17:34:57.735Z,63.41
2018-10-09T17:37:26.387Z,63.85
2018-10-09T17:39:54.796Z,65.02
2018-10-09T17:42:23.308Z,64.13
2018-10-09T17:44:51.805Z,62.83
2018-10-09T17:47:20.248Z,64.17
2018-10-09T17:49:48.672Z,63.63
2018-10-09T17:52:17.065Z,64.75
2018-10-09T17:54:45.683Z,63.97
2018-10-09T17:57:14.281Z,63.74
2018-10-09T17:59:42.856Z,63.54
2018-10-09T18:02:11.316Z,64.12
2018-10-09T18:04:39.753Z,64.34
2018-10-09T18:07:08.179Z,63.76
2018-10-09T18:09:36.652Z,64.04
2018-10-09T18:12:05.140Z,64.54
2018-10-09T18:14:33.479Z,65.06
2018-10-09T18:17:01.779Z,64.31
2018-10-09T18:19:30.152Z,65.16
2018-10-09T18:21:58.567Z,65.18
2018-10-09T18:24:26.964Z,64.55
2018-10-09T18:26:55.357Z,64.79
2018-10-09T18:29:23.738Z,65.11
2018-10-09T18:31:52.272Z,64.39
2018-10-09T18:34:20.756Z,65.35
2018-10-09T18:36:49.301Z,65.24
2018-10-09T18:39:17.856Z,65.05
2018-10-09T18:41:46.967Z,65.23
2018-10-09T18:44:15.732Z,65.67
2018-10-09T18:46:44.251Z,66.17
2018-10-09T18:49:12.830Z,66.12
2018-10-09T18:51:41.408Z,66.06
2018-10-09T18:54:09.837Z,66.07
2018-10-09T18:56:38.609Z,66.80
2018-10-09T18:59:07.152Z,65.83
2018-10-09T19:01:35.798Z,66.04
2018-10-09T19:04:04.336Z,65.43
2018-10-09T19:06:32.848Z,65.55
2018-10-09T19:09:01.261Z,67.71
2018-10-09T19:11:29.660Z,67.40
2018-10-09T19:13:58.181Z,67.62
2018-10-09T19:16:26.662Z,67.12
2018-10-09T19:18:55.127Z,68.84
2018-10-09T19:21:23.657Z,69.03
2018-10-09T19:23:52.210Z,67.89
2018-10-09T19:26:20.652Z,67.35
2018-10-09T19:28:49.072Z,66.19
2018-10-09T19:31:17.563Z,65.92
2018-10-09T19:33:46.394Z,66.09
2018-10-09T19:36:15.856Z,67.45
2018-10-09T19:38:44.341Z,66.69
2018-10-09T19:41:12.812Z,66.74
2018-10-09T19:43:41.236Z,66.81
2018-10-09T19:46:09.737Z,66.43
2018-10-09T19:48:38.161Z,66.07
2018-10-09T19:51:06.740Z,66.55
2018-10-09T19:53:35.212Z,65.94
2018-10-09T19:56:03.648Z,66.24
2018-10-09T19:58:32.104Z,66.86
2018-10-09T20:01:00.794Z,67.61
2018-10-09T20:03:29.248Z,68.33
2018-10-09T20:05:57.925Z,67.50
2018-10-09T20:08:26.465Z,67.12
2018-10-09T20:10:54.939Z,66.43
2018-10-09T20:13:23.458Z,67.13
2018-10-09T20:15:52.104Z,66.88
2018-10-09T20:18:20.585Z,66.94
2018-10-09T20:20:49.107Z,66.98
2018-10-09T20:23:17.531Z,66.23
2018-10-09T20:25:46.072Z,66.67
2018-10-09T20:28:14.690Z,65.86
2018-10-09T20:30:43.212Z,67.17
2018-10-09T20:33:11.806Z,67.15
2018-10-09T20:35:40.235Z,68.42
2018-10-09T20:38:08.657Z,67.05
2018-10-09T20:40:37.131Z,67.06
2018-10-09T20:43:05.669Z,66.60
2018-10-09T20:45:34.316Z,66.34
2018-10-09T20:48:02.832Z,66.87
2018-10-09T20:50:31.313Z,66.73
2018-10-09T20:52:59.850Z,66.46
2018-10-09T20:55:28.394Z,67.10
2018-10-09T20:57:57.404Z,67.42
2018-10-09T21:00:25.903Z,67.88
2018-10-09T21:02:54.384Z,67.77
2018-10-09T21:05:23.400Z,67.27
2018-10-09T21:07:52.736Z,66.88
2018-10-09T21:10:21.323Z,67.49
2018-10-09T21:12:49.760Z,67.19
2018-10-09T21:15:18.317Z,67.17
2018-10-09T21:17:46.963Z,66.87
2018-10-09T21:20:15.307Z,66.75
2018-10-09T21:22:43.729Z,68.38
2018-10-09T21:25:12.220Z,66.99
2018-10-09T21:27:40.684Z,68.18
2018-10-09T21:30:09.159Z,69.13
2018-10-09T21:32:37.808Z,68.94
2018-10-09T21:35:06.344Z,68.75
2018-10-09T21:37:34.769Z,68.53
2018-10-09T21:40:03.411Z,67.38
2018-10-09T21:42:31.909Z,67.48
2018-10-09T21:45:00.359Z,67.11
2018-10-09T21:47:28.831Z,67.56
2018-10-09T21:49:57.315Z,67.50
2018-10-09T21:52:25.915Z,68.81
2018-10-09T21:54:54.381Z,67.58
2018-10-09T21:57:23.894Z,66.61
2018-10-09T21:59:52.382Z,68.83
2018-10-09T22:02:20.837Z,67.08
2018-10-09T22:04:49.362Z,67.17
2018-10-09T22:07:18.673Z,66.70
2018-10-09T22:09:47.215Z,67.01
2018-10-09T22:12:15.620Z,67.21
2018-10-09T22:14:44.056Z,67.91
2018-10-09T22:17:12.484Z,68.56
2018-10-09T22:19:40.951Z,67.79
2018-10-09T22:22:09.359Z,67.67
2018-10-09T22:24:37.772Z,67.92
2018-10-09T22:27:06.289Z,68.09
2018-10-09T22:29:34.805Z,67.57
2018-10-09T22:32:03.392Z,69.96
2018-10-09T22:34:31.880Z,67.67
2018-10-09T22:37:00.344Z,67.40
2018-10-09T22:39:28.939Z,67.79
2018-10-09T22:41:57.452Z,67.18
2018-10-09T22:44:37.023Z,66.94
2018-10-09T22:47:05.432Z,68.26
2018-10-09T22:49:33.986Z,67.51
2018-10-09T22:52:02.387Z,67.32
2018-10-09T22:54:30.788Z,66.85
2018-10-09T22:56:59.208Z,67.60
2018-10-09T22:59:27.867Z,67.07
2018-10-09T23:01:56.430Z,66.51
2018-10-09T23:04:24.988Z,67.41
2018-10-09T23:06:53.489Z,67.31
2018-10-09T23:09:21.933Z,67.89
2018-10-09T23:11:50.294Z,67.74
2018-10-09T23:14:18.733Z,68.35
2018-10-09T23:16:47.158Z,67.39
2018-10-09T23:19:15.583Z,67.29
2018-10-09T23:21:44.102Z,67.92
2018-10-09T23:24:12.595Z,67.52
2018-10-09T23:26:40.964Z,67.47
2018-10-09T23:29:09.480Z,68.05
2018-10-09T23:31:38.056Z,68.35
2018-10-09T23:34:06.662Z,67.82
2018-10-09T23:36:35.127Z,68.07
2018-10-09T23:39:04.959Z,67.72
2018-10-09T23:41:33.347Z,67.27
2018-10-09T23:44:01.835Z,67.24
2018-10-09T23:46:30.321Z,67.28
2018-10-09T23:48:58.831Z,66.91
2018-10-09T23:51:27.269Z,67.75
2018-10-09T23:53:55.681Z,67.02
2018-10-09T23:56:24.072Z,66.96
2018-10-09T23:58:52.503Z,69.15
